sensor_id;sensor_type;location;lat;lon;timestamp;pressure;altitude;pressure_sealevel;temperature;humidity
45441;BME280;31189;38.790;-77.084;2023-02-28T00:01:36;100302.37;;;9.04;55.32
45441;BME280;31189;38.790;-77.084;2023-02-28T00:04:04;100311.14;;;8.41;53.46
45441;BME280;31189;38.790;-77.084;2023-02-28T00:06:32;100319.11;;;9.02;55.25
45441;BME280;31189;38.790;-77.084;2023-02-28T00:08:59;100356.08;;;8.32;56.85
45441;BME280;31189;38.790;-77.084;2023-02-28T00:11:27;100312.17;;;8.20;58.89
45441;BME280;31189;38.790;-77.084;2023-02-28T00:13:56;100285.81;;;9.43;58.84
45441;BME280;31189;38.790;-77.084;2023-02-28T00:16:24;100277.78;;;9.88;60.08
45441;BME280;31189;38.790;-77.084;2023-02-28T00:18:52;100279.49;;;8.08;63.42
45441;BME280;31189;38.790;-77.084;2023-02-28T00:21:20;100288.37;;;7.69;65.55
45441;BME280;31189;38.790;-77.084;2023-02-28T00:23:48;100310.89;;;7.99;67.06
45441;BME280;31189;38.790;-77.084;2023-02-28T00:26:16;100312.86;;;7.95;67.03
45441;BME280;31189;38.790;-77.084;2023-02-28T00:28:44;100337.50;;;6.80;73.03
45441;BME280;31189;38.790;-77.084;2023-02-28T00:31:12;100333.98;;;7.79;71.70
45441;BME280;31189;38.790;-77.084;2023-02-28T00:33:39;100242.62;;;6.76;78.77
45441;BME280;31189;38.790;-77.084;2023-02-28T00:36:10;100213.06;;;7.51;77.59
45441;BME280;31189;38.790;-77.084;2023-02-28T00:38:39;100229.76;;;7.69;76.38
45441;BME280;31189;38.790;-77.084;2023-02-28T00:41:08;100264.41;;;7.50;78.38
45441;BME280;31189;38.790;-77.084;2023-02-28T00:43:38;100250.99;;;6.50;79.05
45441;BME280;31189;38.790;-77.084;2023-02-28T00:46:06;100289.10;;;6.85;80.94
45441;BME280;31189;38.790;-77.084;2023-02-28T00:48:34;100226.74;;;7.37;78.19
45441;BME280;31189;38.790;-77.084;2023-02-28T00:51:02;100188.14;;;7.25;78.55
45441;BME280;31189;38.790;-77.084;2023-02-28T00:53:30;100228.68;;;6.28;85.74
45441;BME280;31189;38.790;-77.084;2023-02-28T00:55:58;100183.52;;;6.67;84.84
45441;BME280;31189;38.790;-77.084;2023-02-28T00:58:27;100168.67;;;7.71;77.28
45441;BME280;31189;38.790;-77.084;2023-02-28T01:00:56;100135.25;;;8.04;77.31
45441;BME280;31189;38.790;-77.084;2023-02-28T01:03:24;100131.63;;;6.85;83.28
45441;BME280;31189;38.790;-77.084;2023-02-28T01:05:52;100102.75;;;7.81;78.95
45441;BME280;31189;38.790;-77.084;2023-02-28T01:08:20;100096.30;;;8.32;75.67
45441;BME280;31189;38.790;-77.084;2023-02-28T01:10:48;100087.92;;;7.92;77.85
45441;BME280;31189;38.790;-77.084;2023-02-28T01:13:16;100100.96;;;5.09;90.54
45441;BME280;31189;38.790;-77.084;2023-02-28T01:15:49;100115.86;;;7.74;77.33
45441;BME280;31189;38.790;-77.084;2023-02-28T01:18:17;100099.37;;;8.41;76.19
45441;BME280;31189;38.790;-77.084;2023-02-28T01:20:45;100077.05;;;8.68;72.80
45441;BME280;31189;38.790;-77.084;2023-02-28T01:23:13;100070.92;;;8.50;73.42
45441;BME280;31189;38.790;-77.084;2023-02-28T01:25:41;100062.34;;;7.95;75.24
45441;BME280;31189;38.790;-77.084;2023-02-28T01:28:09;100047.10;;;7.70;76.68
45441;BME280;31189;38.790;-77.084;2023-02-28T01:30:37;100028.83;;;7.73;75.83
45441;BME280;31189;38.790;-77.084;2023-02-28T01:33:05;100017.32;;;8.95;74.12
45441;BME280;31189;38.790;-77.084;2023-02-28T01:35:33;100039.89;;;5.85;82.80
45441;BME280;31189;38.790;-77.084;2023-02-28T01:38:01;100036.14;;;7.82;75.99
45441;BME280;31189;38.790;-77.084;2023-02-28T01:40:29;100051.43;;;6.94;76.92
45441;BME280;31189;38.790;-77.084;2023-02-28T01:42:57;100066.72;;;7.86;76.99
45441;BME280;31189;38.790;-77.084;2023-02-28T01:45:27;100087.56;;;7.17;76.99
45441;BME280;31189;38.790;-77.084;2023-02-28T01:48:00;100082.44;;;6.01;83.04
45441;BME280;31189;38.790;-77.084;2023-02-28T01:50:32;100060.47;;;6.52;80.05
45441;BME280;31189;38.790;-77.084;2023-02-28T01:53:07;100031.78;;;7.21;79.65
45441;BME280;31189;38.790;-77.084;2023-02-28T01:55:37;99993.73;;;7.81;77.39
45441;BME280;31189;38.790;-77.084;2023-02-28T01:58:07;99978.87;;;6.67;81.87
45441;BME280;31189;38.790;-77.084;2023-02-28T02:00:36;99975.71;;;7.17;80.22
45441;BME280;31189;38.790;-77.084;2023-02-28T02:03:08;99979.06;;;6.62;84.38
45441;BME280;31189;38.790;-77.084;2023-02-28T02:05:40;99978.42;;;6.64;83.93
45441;BME280;31189;38.790;-77.084;2023-02-28T02:08:11;99969.90;;;6.23;88.84
45441;BME280;31189;38.790;-77.084;2023-02-28T02:10:42;99969.90;;;5.74;92.20
45441;BME280;31189;38.790;-77.084;2023-02-28T02:13:27;99963.86;;;5.82;92.03
45441;BME280;31189;38.790;-77.084;2023-02-28T02:16:04;99941.87;;;6.69;88.32
45441;BME280;31189;38.790;-77.084;2023-02-28T02:18:38;99912.72;;;7.11;83.87
45441;BME280;31189;38.790;-77.084;2023-02-28T02:21:24;99899.40;;;6.52;87.95
45441;BME280;31189;38.790;-77.084;2023-02-28T02:24:14;99888.75;;;5.44;89.33
45441;BME280;31189;38.790;-77.084;2023-02-28T02:26:54;99889.24;;;7.54;83.67
45441;BME280;31189;38.790;-77.084;2023-02-28T02:29:45;99891.71;;;7.00;85.45
45441;BME280;31189;38.790;-77.084;2023-02-28T02:32:35;99891.99;;;6.13;90.69
45441;BME280;31189;38.790;-77.084;2023-02-28T02:35:13;99878.44;;;6.93;86.03
45441;BME280;31189;38.790;-77.084;2023-02-28T02:37:47;99876.23;;;6.48;87.96
45441;BME280;31189;38.790;-77.084;2023-02-28T02:40:19;99870.18;;;6.29;88.14
45441;BME280;31189;38.790;-77.084;2023-02-28T02:42:51;99848.78;;;6.61;88.45
45441;BME280;31189;38.790;-77.084;2023-02-28T02:45:24;99837.48;;;6.59;85.50
45441;BME280;31189;38.790;-77.084;2023-02-28T02:47:56;99827.51;;;5.62;91.10
45441;BME280;31189;38.790;-77.084;2023-02-28T02:50:31;99825.84;;;6.94;83.73
45441;BME280;31189;38.790;-77.084;2023-02-28T02:53:02;99820.84;;;7.00;82.51
45441;BME280;31189;38.790;-77.084;2023-02-28T02:55:33;99815.37;;;7.58;79.88
45441;BME280;31189;38.790;-77.084;2023-02-28T02:58:04;99803.60;;;7.50;80.21
45441;BME280;31189;38.790;-77.084;2023-02-28T03:00:37;99797.97;;;7.30;81.47
45441;BME280;31189;38.790;-77.084;2023-02-28T03:03:07;99765.32;;;7.60;79.38
45441;BME280;31189;38.790;-77.084;2023-02-28T03:05:42;99755.40;;;6.88;80.55
45441;BME280;31189;38.790;-77.084;2023-02-28T03:08:12;99749.03;;;6.25;84.80
45441;BME280;31189;38.790;-77.084;2023-02-28T03:10:44;99734.97;;;7.21;79.11
45441;BME280;31189;38.790;-77.084;2023-02-28T03:13:29;99736.36;;;6.56;85.68
45441;BME280;31189;38.790;-77.084;2023-02-28T03:16:11;99759.01;;;6.43;85.26
45441;BME280;31189;38.790;-77.084;2023-02-28T03:18:49;99764.48;;;7.47;81.03
45441;BME280;31189;38.790;-77.084;2023-02-28T03:21:26;99745.98;;;8.03;78.36
45441;BME280;31189;38.790;-77.084;2023-02-28T03:24:02;99748.52;;;6.82;82.31
45441;BME280;31189;38.790;-77.084;2023-02-28T03:26:31;99745.91;;;8.15;75.69
45441;BME280;31189;38.790;-77.084;2023-02-28T03:29:04;99744.02;;;8.30;75.81
45441;BME280;31189;38.790;-77.084;2023-02-28T03:31:37;99752.63;;;7.95;75.59
45441;BME280;31189;38.790;-77.084;2023-02-28T03:34:10;99760.23;;;9.12;71.41
45441;BME280;31189;38.790;-77.084;2023-02-28T03:36:39;99770.15;;;7.17;73.50
45441;BME280;31189;38.790;-77.084;2023-02-28T03:39:11;99768.74;;;8.48;72.30
45441;BME280;31189;38.790;-77.084;2023-02-28T03:41:45;99755.08;;;8.94;73.13
45441;BME280;31189;38.790;-77.084;2023-02-28T03:44:17;99741.39;;;9.22;69.88
45441;BME280;31189;38.790;-77.084;2023-02-28T03:46:48;99733.97;;;7.83;74.70
45441;BME280;31189;38.790;-77.084;2023-02-28T03:49:24;99733.97;;;7.23;77.24
45441;BME280;31189;38.790;-77.084;2023-02-28T03:51:54;99716.82;;;7.10;80.18
45441;BME280;31189;38.790;-77.084;2023-02-28T03:54:27;99710.36;;;7.65;78.47
45441;BME280;31189;38.790;-77.084;2023-02-28T03:57:02;99708.86;;;7.92;74.18
45441;BME280;31189;38.790;-77.084;2023-02-28T03:59:36;99702.89;;;8.64;70.79
45441;BME280;31189;38.790;-77.084;2023-02-28T04:02:05;99695.03;;;8.70;72.55
45441;BME280;31189;38.790;-77.084;2023-02-28T04:04:34;99698.03;;;8.33;71.62
45441;BME280;31189;38.790;-77.084;2023-02-28T04:07:04;99698.79;;;9.11;69.76
45441;BME280;31189;38.790;-77.084;2023-02-28T04:09:33;99774.03;;;8.57;71.35
45441;BME280;31189;38.790;-77.084;2023-02-28T04:12:00;99930.58;;;6.16;85.50
45441;BME280;31189;38.790;-77.084;2023-02-28T04:14:28;99920.44;;;4.87;98.85
45441;BME280;31189;38.790;-77.084;2023-02-28T04:16:56;99812.33;;;5.89;94.58
45441;BME280;31189;38.790;-77.084;2023-02-28T04:19:24;99849.92;;;6.53;92.70
45441;BME280;31189;38.790;-77.084;2023-02-28T04:21:54;99918.21;;;5.90;96.72
45441;BME280;31189;38.790;-77.084;2023-02-28T04:24:23;99847.89;;;7.04;90.75
45441;BME280;31189;38.790;-77.084;2023-02-28T04:26:53;99804.62;;;7.37;85.37
45441;BME280;31189;38.790;-77.084;2023-02-28T04:29:25;99822.37;;;8.30;80.07
45441;BME280;31189;38.790;-77.084;2023-02-28T04:31:54;99814.47;;;8.46;77.14
45441;BME280;31189;38.790;-77.084;2023-02-28T04:34:22;99807.43;;;9.07;75.64
45441;BME280;31189;38.790;-77.084;2023-02-28T04:36:51;99795.21;;;9.11;72.94
45441;BME280;31189;38.790;-77.084;2023-02-28T04:39:18;99782.75;;;9.14;72.12
45441;BME280;31189;38.790;-77.084;2023-02-28T04:41:46;99775.70;;;9.66;69.91
45441;BME280;31189;38.790;-77.084;2023-02-28T04:44:14;99775.83;;;8.59;72.58
45441;BME280;31189;38.790;-77.084;2023-02-28T04:46:43;99774.09;;;8.84;72.92
45441;BME280;31189;38.790;-77.084;2023-02-28T04:49:12;99778.02;;;9.56;72.18
45441;BME280;31189;38.790;-77.084;2023-02-28T04:51:40;99766.90;;;8.93;70.43
45441;BME280;31189;38.790;-77.084;2023-02-28T04:54:08;99773.55;;;9.79;69.75
45441;BME280;31189;38.790;-77.084;2023-02-28T04:56:36;99759.92;;;9.33;69.12
45441;BME280;31189;38.790;-77.084;2023-02-28T04:59:04;99745.51;;;9.65;67.85
45441;BME280;31189;38.790;-77.084;2023-02-28T05:01:34;99746.10;;;9.27;68.21
45441;BME280;31189;38.790;-77.084;2023-02-28T05:04:03;99740.97;;;9.57;67.97
45441;BME280;31189;38.790;-77.084;2023-02-28T05:06:32;99717.85;;;9.66;66.79
45441;BME280;31189;38.790;-77.084;2023-02-28T05:09:00;99697.01;;;9.49;67.17
45441;BME280;31189;38.790;-77.084;2023-02-28T05:11:30;99689.62;;;10.02;65.01
45441;BME280;31189;38.790;-77.084;2023-02-28T05:13:58;99690.89;;;8.67;70.91
45441;BME280;31189;38.790;-77.084;2023-02-28T05:16:27;99691.41;;;9.39;67.92
45441;BME280;31189;38.790;-77.084;2023-02-28T05:18:54;99700.96;;;9.05;68.45
45441;BME280;31189;38.790;-77.084;2023-02-28T05:21:27;99699.28;;;8.78;70.56
45441;BME280;31189;38.790;-77.084;2023-02-28T05:23:56;99680.97;;;9.24;68.74
45441;BME280;31189;38.790;-77.084;2023-02-28T05:26:25;99667.35;;;8.37;71.23
45441;BME280;31189;38.790;-77.084;2023-02-28T05:28:53;99663.48;;;8.17;74.63
45441;BME280;31189;38.790;-77.084;2023-02-28T05:31:21;99662.26;;;8.89;72.78
45441;BME280;31189;38.790;-77.084;2023-02-28T05:33:50;99660.46;;;9.07;69.08
45441;BME280;31189;38.790;-77.084;2023-02-28T05:36:18;99652.01;;;9.57;67.65
45441;BME280;31189;38.790;-77.084;2023-02-28T05:38:47;99649.58;;;9.69;67.05
45441;BME280;31189;38.790;-77.084;2023-02-28T05:41:16;99649.54;;;9.66;65.76
45441;BME280;31189;38.790;-77.084;2023-02-28T05:43:44;99648.03;;;9.65;65.51
45441;BME280;31189;38.790;-77.084;2023-02-28T05:46:13;99652.99;;;9.56;65.96
45441;BME280;31189;38.790;-77.084;2023-02-28T05:48:42;99659.11;;;9.26;66.17
45441;BME280;31189;38.790;-77.084;2023-02-28T05:51:10;99665.11;;;9.69;65.72
45441;BME280;31189;38.790;-77.084;2023-02-28T05:53:38;99672.48;;;9.85;65.73
45441;BME280;31189;38.790;-77.084;2023-02-28T05:56:06;99671.00;;;10.10;63.83
45441;BME280;31189;38.790;-77.084;2023-02-28T05:58:34;99667.21;;;9.58;65.87
45441;BME280;31189;38.790;-77.084;2023-02-28T06:01:20;99660.68;;;9.89;64.96
45441;BME280;31189;38.790;-77.084;2023-02-28T06:03:49;99643.79;;;9.68;64.17
45441;BME280;31189;38.790;-77.084;2023-02-28T06:06:17;99638.39;;;10.15;62.54
45441;BME280;31189;38.790;-77.084;2023-02-28T06:08:45;99623.44;;;10.17;62.72
45441;BME280;31189;38.790;-77.084;2023-02-28T06:11:13;99627.99;;;10.18;62.38
45441;BME280;31189;38.790;-77.084;2023-02-28T06:13:41;99640.09;;;10.40;63.34
45441;BME280;31189;38.790;-77.084;2023-02-28T06:16:11;99651.66;;;9.80;63.93
45441;BME280;31189;38.790;-77.084;2023-02-28T06:18:39;99632.92;;;10.30;61.78
45441;BME280;31189;38.790;-77.084;2023-02-28T06:21:07;99626.54;;;10.56;61.89
45441;BME280;31189;38.790;-77.084;2023-02-28T06:23:35;99648.49;;;10.25;62.71
45441;BME280;31189;38.790;-77.084;2023-02-28T06:26:03;99648.67;;;9.67;65.02
45441;BME280;31189;38.790;-77.084;2023-02-28T06:28:30;99661.79;;;9.35;64.73
45441;BME280;31189;38.790;-77.084;2023-02-28T06:30:59;99684.84;;;9.17;68.07
45441;BME280;31189;38.790;-77.084;2023-02-28T06:33:27;99678.59;;;9.32;66.87
45441;BME280;31189;38.790;-77.084;2023-02-28T06:35:55;99663.61;;;9.77;66.28
45441;BME280;31189;38.790;-77.084;2023-02-28T06:38:22;99661.63;;;10.09;64.26
45441;BME280;31189;38.790;-77.084;2023-02-28T06:40:54;99658.66;;;8.54;67.67
45441;BME280;31189;38.790;-77.084;2023-02-28T06:43:22;99659.04;;;9.29;67.03
45441;BME280;31189;38.790;-77.084;2023-02-28T06:45:54;99660.11;;;9.71;65.56
45441;BME280;31189;38.790;-77.084;2023-02-28T06:48:23;99668.66;;;9.74;66.43
45441;BME280;31189;38.790;-77.084;2023-02-28T06:50:51;99668.94;;;7.86;70.89
45441;BME280;31189;38.790;-77.084;2023-02-28T06:53:19;99662.06;;;9.71;66.29
45441;BME280;31189;38.790;-77.084;2023-02-28T06:55:47;99664.56;;;8.33;68.23
45441;BME280;31189;38.790;-77.084;2023-02-28T06:58:14;99672.72;;;10.04;63.67
45441;BME280;31189;38.790;-77.084;2023-02-28T07:00:43;99664.21;;;9.75;65.59
45441;BME280;31189;38.790;-77.084;2023-02-28T07:03:12;99651.23;;;10.19;63.60
45441;BME280;31189;38.790;-77.084;2023-02-28T07:05:40;99664.44;;;9.50;65.19
45441;BME280;31189;38.790;-77.084;2023-02-28T07:08:08;99673.17;;;9.87;64.69
45441;BME280;31189;38.790;-77.084;2023-02-28T07:10:37;99663.13;;;9.58;65.56
45441;BME280;31189;38.790;-77.084;2023-02-28T07:13:07;99652.73;;;10.08;64.86
45441;BME280;31189;38.790;-77.084;2023-02-28T07:15:35;99664.43;;;9.75;65.48
45441;BME280;31189;38.790;-77.084;2023-02-28T07:18:04;99656.65;;;10.17;65.52
45441;BME280;31189;38.790;-77.084;2023-02-28T07:20:31;99653.63;;;10.09;63.40
45441;BME280;31189;38.790;-77.084;2023-02-28T07:22:59;99657.42;;;9.99;63.02
45441;BME280;31189;38.790;-77.084;2023-02-28T07:25:28;99657.32;;;10.28;62.73
45441;BME280;31189;38.790;-77.084;2023-02-28T07:27:57;99658.76;;;10.37;62.23
45441;BME280;31189;38.790;-77.084;2023-02-28T07:30:26;99650.32;;;10.07;63.07
45441;BME280;31189;38.790;-77.084;2023-02-28T07:32:53;99665.72;;;8.81;68.86
45441;BME280;31189;38.790;-77.084;2023-02-28T07:35:21;99674.86;;;8.91;67.69
45441;BME280;31189;38.790;-77.084;2023-02-28T07:37:49;99654.82;;;9.61;66.46
45441;BME280;31189;38.790;-77.084;2023-02-28T07:40:17;99664.23;;;10.11;65.18
45441;BME280;31189;38.790;-77.084;2023-02-28T07:42:45;99658.25;;;9.31;65.78
45441;BME280;31189;38.790;-77.084;2023-02-28T07:45:13;99656.36;;;8.96;68.92
45441;BME280;31189;38.790;-77.084;2023-02-28T07:47:42;99656.04;;;9.82;66.52
45441;BME280;31189;38.790;-77.084;2023-02-28T07:50:12;99656.42;;;9.69;66.62
45441;BME280;31189;38.790;-77.084;2023-02-28T07:52:41;99669.63;;;8.32;71.18
45441;BME280;31189;38.790;-77.084;2023-02-28T07:55:09;99661.32;;;9.30;67.45
45441;BME280;31189;38.790;-77.084;2023-02-28T07:57:38;99661.27;;;9.92;66.02
45441;BME280;31189;38.790;-77.084;2023-02-28T08:00:07;99667.49;;;9.84;65.80
45441;BME280;31189;38.790;-77.084;2023-02-28T08:02:38;99675.90;;;9.43;67.20
45441;BME280;31189;38.790;-77.084;2023-02-28T08:05:07;99679.97;;;9.56;66.24
45441;BME280;31189;38.790;-77.084;2023-02-28T08:07:36;99682.11;;;9.91;65.39
45441;BME280;31189;38.790;-77.084;2023-02-28T08:10:04;99674.07;;;9.67;66.47
45441;BME280;31189;38.790;-77.084;2023-02-28T08:12:33;99685.70;;;9.81;65.00
45441;BME280;31189;38.790;-77.084;2023-02-28T08:15:01;99680.19;;;10.12;65.34
45441;BME280;31189;38.790;-77.084;2023-02-28T08:17:29;99673.90;;;8.62;66.18
45441;BME280;31189;38.790;-77.084;2023-02-28T08:19:57;99683.75;;;9.48;65.79
45441;BME280;31189;38.790;-77.084;2023-02-28T08:22:26;99677.32;;;10.20;64.34
45441;BME280;31189;38.790;-77.084;2023-02-28T08:24:54;99688.29;;;9.26;66.98
45441;BME280;31189;38.790;-77.084;2023-02-28T08:27:22;99668.63;;;9.98;65.94
45441;BME280;31189;38.790;-77.084;2023-02-28T08:29:49;99669.91;;;9.41;65.56
45441;BME280;31189;38.790;-77.084;2023-02-28T08:32:17;99685.43;;;9.69;65.08
45441;BME280;31189;38.790;-77.084;2023-02-28T08:34:46;99680.42;;;9.05;67.23
45441;BME280;31189;38.790;-77.084;2023-02-28T08:37:13;99683.44;;;9.07;67.34
45441;BME280;31189;38.790;-77.084;2023-02-28T08:39:42;99672.48;;;9.57;65.42
45441;BME280;31189;38.790;-77.084;2023-02-28T08:42:09;99683.21;;;9.89;65.62
45441;BME280;31189;38.790;-77.084;2023-02-28T08:44:37;99684.29;;;9.79;64.25
45441;BME280;31189;38.790;-77.084;2023-02-28T08:47:05;99687.61;;;10.00;64.26
45441;BME280;31189;38.790;-77.084;2023-02-28T08:49:33;99694.76;;;9.28;64.70
45441;BME280;31189;38.790;-77.084;2023-02-28T08:52:01;99700.76;;;9.66;65.61
45441;BME280;31189;38.790;-77.084;2023-02-28T08:54:29;99703.42;;;8.99;66.02
45441;BME280;31189;38.790;-77.084;2023-02-28T08:56:57;99701.32;;;10.18;63.66
45441;BME280;31189;38.790;-77.084;2023-02-28T08:59:25;99703.94;;;9.92;64.49
45441;BME280;31189;38.790;-77.084;2023-02-28T09:01:53;99715.11;;;9.30;66.25
45441;BME280;31189;38.790;-77.084;2023-02-28T09:04:22;99705.20;;;9.05;67.53
45441;BME280;31189;38.790;-77.084;2023-02-28T09:06:50;99705.65;;;8.69;68.56
45441;BME280;31189;38.790;-77.084;2023-02-28T09:09:17;99706.85;;;9.22;67.05
45441;BME280;31189;38.790;-77.084;2023-02-28T09:11:45;99714.91;;;9.29;67.22
45441;BME280;31189;38.790;-77.084;2023-02-28T09:14:13;99724.36;;;8.38;70.83
45441;BME280;31189;38.790;-77.084;2023-02-28T09:16:42;99736.30;;;8.85;68.82
45441;BME280;31189;38.790;-77.084;2023-02-28T09:19:11;99740.51;;;8.48;70.08
45441;BME280;31189;38.790;-77.084;2023-02-28T09:21:40;99736.22;;;8.53;69.15
45441;BME280;31189;38.790;-77.084;2023-02-28T09:24:08;99741.03;;;9.13;67.57
45441;BME280;31189;38.790;-77.084;2023-02-28T09:26:37;99741.74;;;8.68;68.74
45441;BME280;31189;38.790;-77.084;2023-02-28T09:29:05;99737.79;;;8.64;70.64
45441;BME280;31189;38.790;-77.084;2023-02-28T09:31:33;99738.55;;;8.14;71.26
45441;BME280;31189;38.790;-77.084;2023-02-28T09:34:00;99744.32;;;8.86;68.44
45441;BME280;31189;38.790;-77.084;2023-02-28T09:36:28;99753.02;;;8.26;71.80
45441;BME280;31189;38.790;-77.084;2023-02-28T09:38:56;99742.60;;;8.73;68.56
45441;BME280;31189;38.790;-77.084;2023-02-28T09:41:26;99750.05;;;9.60;66.41
45441;BME280;31189;38.790;-77.084;2023-02-28T09:43:56;99755.24;;;9.67;66.19
45441;BME280;31189;38.790;-77.084;2023-02-28T09:46:32;99769.91;;;9.80;65.99
45441;BME280;31189;38.790;-77.084;2023-02-28T09:49:06;99776.37;;;9.25;66.76
45441;BME280;31189;38.790;-77.084;2023-02-28T09:51:44;99770.69;;;9.21;66.26
45441;BME280;31189;38.790;-77.084;2023-02-28T09:54:15;99792.00;;;9.19;67.45
45441;BME280;31189;38.790;-77.084;2023-02-28T09:56:45;99783.40;;;8.07;68.70
45441;BME280;31189;38.790;-77.084;2023-02-28T09:59:25;99796.65;;;9.28;66.80
45441;BME280;31189;38.790;-77.084;2023-02-28T10:02:05;99794.68;;;9.38;65.75
45441;BME280;31189;38.790;-77.084;2023-02-28T10:04:46;99795.18;;;9.86;64.34
45441;BME280;31189;38.790;-77.084;2023-02-28T10:07:22;99784.17;;;9.83;64.86
45441;BME280;31189;38.790;-77.084;2023-02-28T10:09:55;99783.95;;;9.10;64.64
45441;BME280;31189;38.790;-77.084;2023-02-28T10:12:28;99791.15;;;9.43;65.27
45441;BME280;31189;38.790;-77.084;2023-02-28T10:14:58;99811.21;;;7.52;70.56
45441;BME280;31189;38.790;-77.084;2023-02-28T10:17:29;99823.24;;;8.96;67.08
45441;BME280;31189;38.790;-77.084;2023-02-28T10:20:09;99828.37;;;9.98;64.34
45441;BME280;31189;38.790;-77.084;2023-02-28T10:22:51;99835.11;;;10.09;62.95
45441;BME280;31189;38.790;-77.084;2023-02-28T10:25:22;99838.45;;;10.07;64.11
45441;BME280;31189;38.790;-77.084;2023-02-28T10:27:54;99845.28;;;9.38;64.78
45441;BME280;31189;38.790;-77.084;2023-02-28T10:30:24;99848.01;;;9.39;65.90
45441;BME280;31189;38.790;-77.084;2023-02-28T10:32:52;99857.25;;;8.66;66.96
45441;BME280;31189;38.790;-77.084;2023-02-28T10:35:22;99871.78;;;9.17;65.59
45441;BME280;31189;38.790;-77.084;2023-02-28T10:37:53;99883.58;;;9.30;65.10
45441;BME280;31189;38.790;-77.084;2023-02-28T10:40:32;99894.19;;;8.42;66.24
45441;BME280;31189;38.790;-77.084;2023-02-28T10:43:02;99904.59;;;8.89;66.64
45441;BME280;31189;38.790;-77.084;2023-02-28T10:45:32;99893.16;;;7.63;68.68
45441;BME280;31189;38.790;-77.084;2023-02-28T10:48:03;99898.57;;;8.99;68.22
45441;BME280;31189;38.790;-77.084;2023-02-28T10:50:36;99903.93;;;9.28;66.59
45441;BME280;31189;38.790;-77.084;2023-02-28T10:53:16;99913.37;;;9.50;66.34
45441;BME280;31189;38.790;-77.084;2023-02-28T10:55:44;99923.13;;;9.41;65.81
45441;BME280;31189;38.790;-77.084;2023-02-28T10:58:22;99925.33;;;9.90;64.25
45441;BME280;31189;38.790;-77.084;2023-02-28T11:00:51;99934.69;;;9.10;67.20
45441;BME280;31189;38.790;-77.084;2023-02-28T11:03:33;99944.94;;;9.67;65.18
45441;BME280;31189;38.790;-77.084;2023-02-28T11:06:06;99948.58;;;9.65;65.37
45441;BME280;31189;38.790;-77.084;2023-02-28T11:08:35;99959.43;;;9.69;65.17
45441;BME280;31189;38.790;-77.084;2023-02-28T11:11:11;99953.93;;;9.69;64.53
45441;BME280;31189;38.790;-77.084;2023-02-28T11:13:38;99958.24;;;9.40;64.91
45441;BME280;31189;38.790;-77.084;2023-02-28T11:16:09;99964.31;;;9.76;64.74
45441;BME280;31189;38.790;-77.084;2023-02-28T11:18:41;99973.52;;;9.77;64.09
45441;BME280;31189;38.790;-77.084;2023-02-28T11:21:18;99979.13;;;9.77;64.23
45441;BME280;31189;38.790;-77.084;2023-02-28T11:23:48;99989.77;;;9.52;64.39
45441;BME280;31189;38.790;-77.084;2023-02-28T11:26:17;99992.37;;;9.51;64.40
45441;BME280;31189;38.790;-77.084;2023-02-28T11:29:11;99994.84;;;10.20;62.71
45441;BME280;31189;38.790;-77.084;2023-02-28T11:31:39;100005.91;;;10.15;61.88
45441;BME280;31189;38.790;-77.084;2023-02-28T11:34:24;100016.61;;;9.08;63.89
45441;BME280;31189;38.790;-77.084;2023-02-28T11:36:54;100018.41;;;9.26;64.46
45441;BME280;31189;38.790;-77.084;2023-02-28T11:39:25;100024.66;;;9.58;64.80
45441;BME280;31189;38.790;-77.084;2023-02-28T11:42:04;100031.99;;;9.60;62.62
45441;BME280;31189;38.790;-77.084;2023-02-28T11:44:50;100040.94;;;9.69;63.23
45441;BME280;31189;38.790;-77.084;2023-02-28T11:47:33;100037.27;;;10.52;61.45
45441;BME280;31189;38.790;-77.084;2023-02-28T11:50:20;100049.71;;;9.15;64.03
45441;BME280;31189;38.790;-77.084;2023-02-28T11:52:54;100057.83;;;10.76;60.75
45441;BME280;31189;38.790;-77.084;2023-02-28T11:55:27;100055.93;;;9.70;63.28
45441;BME280;31189;38.790;-77.084;2023-02-28T11:58:17;100070.08;;;10.69;60.46
45441;BME280;31189;38.790;-77.084;2023-02-28T12:01:07;100075.20;;;10.06;62.80
45441;BME280;31189;38.790;-77.084;2023-02-28T12:03:44;100083.23;;;9.90;62.47
45441;BME280;31189;38.790;-77.084;2023-02-28T12:06:21;100095.93;;;10.39;62.12
45441;BME280;31189;38.790;-77.084;2023-02-28T12:09:02;100104.14;;;9.93;62.67
45441;BME280;31189;38.790;-77.084;2023-02-28T12:11:40;100107.67;;;9.72;61.78
45441;BME280;31189;38.790;-77.084;2023-02-28T12:14:31;100108.76;;;10.25;61.41
45441;BME280;31189;38.790;-77.084;2023-02-28T12:17:19;100107.89;;;10.02;61.86
45441;BME280;31189;38.790;-77.084;2023-02-28T12:19:57;100105.77;;;9.80;61.76
45441;BME280;31189;38.790;-77.084;2023-02-28T12:22:30;100118.15;;;9.51;62.73
45441;BME280;31189;38.790;-77.084;2023-02-28T12:26:40;100115.86;;;11.23;61.30
45441;BME280;31189;38.790;-77.084;2023-02-28T12:29:16;100113.30;;;9.46;62.97
45441;BME280;31189;38.790;-77.084;2023-02-28T12:31:49;100117.55;;;10.07;62.85
45441;BME280;31189;38.790;-77.084;2023-02-28T12:34:21;100120.33;;;10.48;61.13
45441;BME280;31189;38.790;-77.084;2023-02-28T12:36:52;100115.05;;;10.32;61.85
45441;BME280;31189;38.790;-77.084;2023-02-28T12:39:25;100116.14;;;10.17;62.44
45441;BME280;31189;38.790;-77.084;2023-02-28T12:41:58;100125.74;;;10.32;61.86
45441;BME280;31189;38.790;-77.084;2023-02-28T12:44:32;100133.47;;;9.38;62.59
45441;BME280;31189;38.790;-77.084;2023-02-28T12:47:03;100146.17;;;10.29;61.91
45441;BME280;31189;38.790;-77.084;2023-02-28T12:49:36;100156.28;;;10.87;60.70
45441;BME280;31189;38.790;-77.084;2023-02-28T12:52:07;100150.63;;;11.05;60.34
45441;BME280;31189;38.790;-77.084;2023-02-28T12:54:40;100161.43;;;10.50;61.36
45441;BME280;31189;38.790;-77.084;2023-02-28T12:57:15;100175.24;;;10.20;62.52
45441;BME280;31189;38.790;-77.084;2023-02-28T12:59:49;100185.45;;;10.51;60.26
45441;BME280;31189;38.790;-77.084;2023-02-28T13:03:51;100198.17;;;11.49;62.06
45441;BME280;31189;38.790;-77.084;2023-02-28T13:06:31;100204.71;;;9.79;63.20
45441;BME280;31189;38.790;-77.084;2023-02-28T13:09:09;100210.23;;;10.55;61.34